Corpus Christi Naval Air Station/Truax Field
KNGP : now visible

Airfield :











YOU CAN JOIN US ON...

 
LOGIN :

Register | Disclaimer

   EN    FR    IT 

 









Legend :    VFR   Marginal VFR   IFR   Intensive IFR   Very Intensive IFR
Visi :
Ceiling :
>= 8 km
>= 3000ft
5 to 8 km
1000 to 3000 ft
1500m to 5 km
500 to 1000 ft
800 to 1500m
200 to 500 ft
< 800m
< 200 ft
Symbols :   Thunderstorms  Fog  Heavy snow  Heavy precipitations  Wind > 20 kt






- Airport Elevation : 18 ft


KNGP - Corpus Christi Naval Air Station/Truax Field

CURRENT METAR :
  • 171756Z 16018G21KT 10SM BKN015 BKN030 29/25 A2982 RMK AO2 PK WND 16028/1746 SLP098 T02940250 10300 20256 58010 $

EXPIRED METARs :
  • 171656Z 16018G26KT 9SM BKN015 BKN021 BKN038 29/25 A2984 RMK AO2 PK WND 15026/1652 SLP104 T02890250 $
  • 171556Z 15014KT 6SM HZ SCT008 BKN011 OVC020 27/24 A2986 RMK AO2 SLP110 T02720244 $

TAF TAF KNGP
Valid from the 17 at 15:00 until the 18 at 15:00 UTC


1715/1815 15015KT 9000 HZ BKN012 OVC020 510043 QNH2981INS
BECMG 1715/1716 14018G26KT 9999 SCT012 BKN022 OVC040 510003 QNH2981INS
TEMPO 1716/1718 15015KT 9000 HZ BKN011 BKN030
BECMG 1718/1720 14018G26KT 9999 NSW SCT020 BKN030 BKN045 BKN250 510003 QNH2975INS
BECMG 1800/1802 14015KT 9999 BKN010 OVC020 510052 QNH2981INS
FM180800 16014KT 9999 VCSH BKN010 OVC015 51004 QNH2977INS
TEMPO 1809/1815 VRB15G25KT 4000 SHRA BR BKN007 OVC012 T29/1720Z T26/1811Z FN20042
KZHU FIR / North America



MET'MAP, your aeronautical weather chart ! - Copyright ORBIFLY December 2007 - Disclaimer

ORBIFLY MET'MAP TEAM :

Programming & Development : Alexandra Zaïnal
Concept & original design : Baudouin d'Aumeries
Assistance for programming : Marc-Olivier Méhu
Technical & hardware support : Manuel Goepfert

Contact : metmap@orbifly.com




SOURCES & CREDITS :

   NOAA       Earth
Advisory